createdAt,value
2019-01-10T00:00:12.814Z,3.80
2019-01-10T00:02:41.215Z,3.63
2019-01-10T00:05:10.889Z,3.50
2019-01-10T00:07:39.334Z,3.70
2019-01-10T00:10:10.372Z,3.50
2019-01-10T00:12:39.641Z,3.70
2019-01-10T00:15:11.178Z,3.43
2019-01-10T00:17:39.528Z,3.30
2019-01-10T00:20:10.104Z,3.35
2019-01-10T00:22:38.451Z,3.43
2019-01-10T00:25:09.392Z,3.37
2019-01-10T00:27:37.755Z,3.00
2019-01-10T00:30:14.928Z,3.40
2019-01-10T00:32:43.360Z,2.93
2019-01-10T00:35:12.135Z,3.47
2019-01-10T00:37:40.484Z,2.90
2019-01-10T00:40:14.324Z,3.00
2019-01-10T00:42:49.121Z,3.30
2019-01-10T00:45:16.905Z,3.40
2019-01-10T00:47:45.504Z,3.17
2019-01-10T00:50:16.434Z,3.10
2019-01-10T00:52:45.783Z,3.33
2019-01-10T00:55:14.188Z,3.13
2019-01-10T00:57:42.748Z,3.50
2019-01-10T01:00:23.065Z,3.37
2019-01-10T01:02:51.488Z,3.10
2019-01-10T01:05:19.956Z,3.30
2019-01-10T01:07:48.372Z,3.22
2019-01-10T01:10:24.751Z,3.23
2019-01-10T01:12:58.287Z,2.83
2019-01-10T01:15:23.849Z,3.33
2019-01-10T01:17:52.183Z,3.10
2019-01-10T01:20:22.674Z,3.40
2019-01-10T01:22:51.195Z,2.80
2019-01-10T01:25:19.546Z,3.42
2019-01-10T01:27:47.931Z,3.10
2019-01-10T01:30:18.792Z,3.27
2019-01-10T01:32:47.198Z,3.13
2019-01-10T01:35:16.137Z,2.83
2019-01-10T01:37:44.716Z,3.02
2019-01-10T01:40:15.518Z,2.50
2019-01-10T01:42:43.995Z,3.17
2019-01-10T01:45:13.748Z,3.33
2019-01-10T01:47:42.091Z,3.10
2019-01-10T01:50:18.068Z,3.13
2019-01-10T01:52:46.466Z,3.03
2019-01-10T01:55:14.821Z,3.23
2019-01-10T01:57:43.167Z,3.45
2019-01-10T02:00:14.265Z,3.53
2019-01-10T02:02:42.630Z,3.20
2019-01-10T02:05:11.122Z,3.43
2019-01-10T02:07:39.607Z,3.30
2019-01-10T02:10:16.688Z,3.40
2019-01-10T02:12:45.083Z,3.40
2019-01-10T02:15:14.365Z,3.40
2019-01-10T02:17:48.725Z,3.60
2019-01-10T02:20:13.056Z,3.73
2019-01-10T02:22:41.455Z,3.47
2019-01-10T02:25:14.664Z,3.30
2019-01-10T02:27:43.063Z,4.00
2019-01-10T02:30:17.209Z,3.60
2019-01-10T02:32:45.610Z,4.13
2019-01-10T02:35:14.699Z,3.77
2019-01-10T02:37:43.119Z,4.30
2019-01-10T02:40:11.744Z,4.27
2019-01-10T02:42:40.079Z,3.80
2019-01-10T02:45:11.596Z,3.87
2019-01-10T02:47:39.950Z,3.80
2019-01-10T02:50:19.763Z,3.55
2019-01-10T02:52:48.270Z,3.93
2019-01-10T02:55:16.788Z,4.13
2019-01-10T02:57:45.119Z,4.00
2019-01-10T03:00:16.689Z,3.87
2019-01-10T03:02:45.056Z,3.67
2019-01-10T03:05:13.543Z,3.70
2019-01-10T03:08:01.240Z,3.83
2019-01-10T03:10:29.600Z,3.87
2019-01-10T03:12:57.935Z,3.73
2019-01-10T03:15:26.517Z,3.65
2019-01-10T03:17:54.883Z,3.90
2019-01-10T03:20:23.465Z,3.70
2019-01-10T03:22:51.890Z,3.90
2019-01-10T03:25:20.240Z,3.43
2019-01-10T03:27:48.644Z,4.33
2019-01-10T03:30:18.673Z,3.83
2019-01-10T03:32:47.154Z,3.87
2019-01-10T03:35:15.657Z,4.07
2019-01-10T03:37:44.069Z,4.00
2019-01-10T03:40:17.419Z,4.20
2019-01-10T03:42:45.863Z,4.43
2019-01-10T03:45:16.253Z,3.92
2019-01-10T03:47:44.596Z,3.87
2019-01-10T03:50:14.679Z,4.20
2019-01-10T03:52:43.093Z,4.70
2019-01-10T03:55:11.520Z,4.00
2019-01-10T03:57:39.861Z,3.93
2019-01-10T04:00:16.759Z,3.98
2019-01-10T04:02:45.095Z,4.30
2019-01-10T04:05:13.582Z,4.03
2019-01-10T04:07:41.986Z,4.35
2019-01-10T04:10:11.882Z,4.10
2019-01-10T04:12:40.223Z,4.03
2019-01-10T04:15:09.976Z,3.93
2019-01-10T04:17:38.305Z,4.80
2019-01-10T04:20:08.996Z,4.60
2019-01-10T04:22:37.348Z,4.85
2019-01-10T04:25:06.845Z,5.33
2019-01-10T04:27:35.191Z,4.93
2019-01-10T04:30:05.260Z,4.83
2019-01-10T04:32:33.590Z,4.83
2019-01-10T04:35:02.069Z,4.87
2019-01-10T04:37:30.469Z,5.37
2019-01-10T04:39:58.800Z,4.83
2019-01-10T04:42:27.147Z,4.87
2019-01-10T04:44:55.484Z,4.97
2019-01-10T04:47:23.837Z,4.80
2019-01-10T04:49:52.231Z,4.50
2019-01-10T04:52:20.599Z,4.63
2019-01-10T04:54:48.936Z,4.50
2019-01-10T04:57:17.286Z,4.23
2019-01-10T04:59:45.615Z,4.28
2019-01-10T05:02:18.458Z,3.77
2019-01-10T05:04:44.097Z,4.35
2019-01-10T05:07:12.471Z,4.57
2019-01-10T05:09:40.827Z,5.23
2019-01-10T05:12:09.166Z,5.00
2019-01-10T05:14:37.514Z,4.07
2019-01-10T05:17:05.939Z,4.17
2019-01-10T05:19:34.272Z,4.00
2019-01-10T05:22:02.691Z,4.47
2019-01-10T05:24:31.041Z,4.10
2019-01-10T05:26:59.391Z,4.10
2019-01-10T05:29:27.722Z,4.40
2019-01-10T05:31:56.047Z,4.70
2019-01-10T05:34:24.413Z,4.77
2019-01-10T05:36:52.763Z,4.80
2019-01-10T05:39:21.110Z,5.17
2019-01-10T05:41:49.475Z,4.83
2019-01-10T05:44:26.375Z,4.27
2019-01-10T05:46:48.616Z,4.70
2019-01-10T05:49:17.366Z,4.53
2019-01-10T05:51:45.752Z,4.50
2019-01-10T05:54:14.117Z,4.83
2019-01-10T05:56:42.523Z,4.55
2019-01-10T05:59:10.920Z,4.63
2019-01-10T06:01:39.280Z,4.77
2019-01-10T06:04:07.608Z,5.07
2019-01-10T06:06:35.960Z,4.80
2019-01-10T06:09:07.466Z,5.00
2019-01-10T06:11:35.810Z,5.53
2019-01-10T06:14:04.440Z,5.60
2019-01-10T06:16:32.785Z,5.20
2019-01-10T06:19:01.393Z,5.00
2019-01-10T06:21:29.733Z,5.17
2019-01-10T06:23:58.055Z,5.58
2019-01-10T06:26:26.493Z,5.45
2019-01-10T06:28:55.748Z,5.03
2019-01-10T06:31:24.102Z,5.13
2019-01-10T06:33:52.524Z,5.13
2019-01-10T06:36:20.918Z,5.20
2019-01-10T06:38:49.245Z,6.58
2019-01-10T06:41:17.652Z,6.33
2019-01-10T06:43:45.994Z,6.87
2019-01-10T06:46:14.328Z,5.33
2019-01-10T06:48:42.704Z,7.17
2019-01-10T06:51:11.055Z,8.00
2019-01-10T06:53:39.387Z,8.10
2019-01-10T06:56:07.893Z,8.37
2019-01-10T06:58:36.299Z,6.77
2019-01-10T07:01:04.777Z,7.62
2019-01-10T07:03:33.124Z,7.33
2019-01-10T07:06:01.475Z,7.50
2019-01-10T07:08:29.808Z,5.90
2019-01-10T07:10:58.146Z,8.03
2019-01-10T07:13:26.507Z,10.50
2019-01-10T07:15:54.940Z,13.88
2019-01-10T07:18:23.293Z,6.53
2019-01-10T07:20:52.246Z,7.83
2019-01-10T07:23:20.663Z,7.07
2019-01-10T07:25:53.348Z,6.53
2019-01-10T07:28:24.446Z,5.40
2019-01-10T07:30:53.832Z,5.77
2019-01-10T07:33:22.331Z,6.05
2019-01-10T07:35:53.179Z,5.55
2019-01-10T07:38:21.576Z,6.03
2019-01-10T07:40:49.920Z,9.03
2019-01-10T07:43:22.215Z,7.43
2019-01-10T07:45:50.542Z,7.57
2019-01-10T07:48:18.896Z,5.80
2019-01-10T07:50:47.243Z,5.90
2019-01-10T07:53:15.588Z,6.03
2019-01-10T07:55:43.992Z,7.80
2019-01-10T07:58:12.405Z,7.53
2019-01-10T08:00:40.740Z,6.30
2019-01-10T08:03:09.225Z,8.78
2019-01-10T08:05:37.982Z,7.17
2019-01-10T08:08:06.756Z,8.07
2019-01-10T08:10:35.292Z,7.67
2019-01-10T08:13:03.643Z,6.37
2019-01-10T08:15:31.995Z,7.10
2019-01-10T08:18:00.355Z,7.55
2019-01-10T08:20:29.404Z,11.37
2019-01-10T08:22:57.811Z,18.23
2019-01-10T08:25:26.170Z,12.67
2019-01-10T08:27:54.656Z,7.93
2019-01-10T08:30:23.186Z,7.33
2019-01-10T08:32:51.623Z,6.83
2019-01-10T08:35:22.089Z,6.87
2019-01-10T08:37:50.431Z,6.73
2019-01-10T08:40:18.836Z,6.40
2019-01-10T08:42:47.186Z,6.60
2019-01-10T08:45:21.445Z,5.67
2019-01-10T08:47:45.647Z,6.30
2019-01-10T08:50:19.328Z,6.27
2019-01-10T08:52:47.735Z,10.80
2019-01-10T08:55:16.078Z,9.73
2019-01-10T08:57:44.492Z,6.37
2019-01-10T09:00:15.176Z,6.95
2019-01-10T09:02:43.611Z,6.90
2019-01-10T09:05:12.472Z,7.92
2019-01-10T09:07:40.868Z,8.47
2019-01-10T09:10:23.413Z,6.90
2019-01-10T09:12:51.768Z,11.80
2019-01-10T09:15:25.441Z,7.30
2019-01-10T09:17:50.206Z,6.93
2019-01-10T09:20:18.583Z,7.43
2019-01-10T09:22:46.978Z,5.78
2019-01-10T09:25:17.651Z,19.43
2019-01-10T09:27:45.761Z,10.33
2019-01-10T09:30:21.019Z,9.97
2019-01-10T09:32:49.433Z,7.47
2019-01-10T09:35:17.851Z,7.87
2019-01-10T09:37:46.604Z,8.03
2019-01-10T09:40:17.084Z,5.70
2019-01-10T09:42:45.570Z,9.05
2019-01-10T09:45:16.387Z,18.50
2019-01-10T09:47:44.734Z,28.63
2019-01-10T09:50:15.669Z,32.23
2019-01-10T09:52:44.343Z,18.03
2019-01-10T09:55:12.766Z,11.77
2019-01-10T09:57:41.098Z,9.33
2019-01-10T10:00:15.638Z,9.23
2019-01-10T10:02:44.063Z,13.23
2019-01-10T10:05:12.555Z,34.97
2019-01-10T10:07:40.963Z,32.53
2019-01-10T10:10:15.369Z,10.63
2019-01-10T10:12:43.784Z,6.20
2019-01-10T10:15:13.171Z,4.90
2019-01-10T10:17:41.561Z,4.60
2019-01-10T10:20:20.965Z,4.83
2019-01-10T10:22:49.370Z,4.57
2019-01-10T10:25:17.723Z,5.00
2019-01-10T10:27:46.131Z,6.60
2019-01-10T10:30:17.329Z,4.20
2019-01-10T10:32:45.710Z,4.80
2019-01-10T10:35:14.185Z,5.08
2019-01-10T10:38:01.924Z,4.10
2019-01-10T10:40:30.277Z,4.20
2019-01-10T10:42:58.613Z,6.30
2019-01-10T10:45:27.035Z,4.67
2019-01-10T10:47:55.391Z,4.23
2019-01-10T10:50:26.116Z,4.30
2019-01-10T10:52:54.528Z,4.57
2019-01-10T10:55:22.868Z,3.60
2019-01-10T10:57:51.196Z,3.10
2019-01-10T11:00:22.062Z,4.03
2019-01-10T11:02:50.470Z,4.67
2019-01-10T11:05:18.897Z,4.13
2019-01-10T11:07:47.308Z,4.47
2019-01-10T11:10:18.067Z,4.40
2019-01-10T11:12:46.536Z,4.27
2019-01-10T11:15:15.194Z,4.43
2019-01-10T11:17:43.633Z,4.53
2019-01-10T11:20:15.029Z,3.97
2019-01-10T11:22:43.368Z,4.07
2019-01-10T11:25:14.466Z,6.57
2019-01-10T11:27:42.962Z,4.70
2019-01-10T11:30:14.607Z,6.50
2019-01-10T11:32:42.943Z,5.00
2019-01-10T11:35:11.294Z,4.67
2019-01-10T11:37:39.616Z,7.23
2019-01-10T11:40:16.430Z,7.90
2019-01-10T11:42:44.835Z,5.80
2019-01-10T11:45:16.135Z,7.87
2019-01-10T11:47:44.539Z,3.55
2019-01-10T11:50:32.233Z,5.00
2019-01-10T11:53:13.765Z,3.70
2019-01-10T11:55:42.123Z,4.80
2019-01-10T11:58:10.505Z,4.60
2019-01-10T12:00:38.860Z,5.40
2019-01-10T12:03:07.262Z,3.80
2019-01-10T12:05:35.687Z,4.20
2019-01-10T12:08:04.084Z,3.53
2019-01-10T12:10:32.432Z,4.40
2019-01-10T12:13:00.764Z,3.13
2019-01-10T12:15:29.119Z,3.70
2019-01-10T12:17:57.510Z,2.93
2019-01-10T12:20:26.023Z,2.90
2019-01-10T12:22:54.491Z,3.30
2019-01-10T12:25:22.972Z,3.03
2019-01-10T12:27:51.459Z,3.30
2019-01-10T12:30:21.759Z,4.00
2019-01-10T12:32:50.086Z,4.17
2019-01-10T12:35:18.511Z,3.70
2019-01-10T12:37:46.855Z,3.53
2019-01-10T12:40:15.964Z,3.50
2019-01-10T12:42:44.700Z,3.80
2019-01-10T12:45:17.926Z,3.37
2019-01-10T12:47:46.245Z,3.37
2019-01-10T12:50:20.159Z,3.80
2019-01-10T12:52:48.488Z,3.70
2019-01-10T12:55:17.680Z,3.37
2019-01-10T12:57:46.081Z,3.97
2019-01-10T13:00:17.035Z,3.90
2019-01-10T13:02:45.427Z,4.17
2019-01-10T13:05:14.061Z,3.80
2019-01-10T13:07:42.538Z,3.60
2019-01-10T13:10:14.123Z,3.10
2019-01-10T13:12:42.513Z,3.73
2019-01-10T13:15:14.004Z,3.45
2019-01-10T13:17:42.408Z,3.30
2019-01-10T13:20:13.563Z,3.20
2019-01-10T13:22:41.974Z,3.43
2019-01-10T13:25:13.231Z,3.43
2019-01-10T13:27:41.572Z,4.07
2019-01-10T13:30:17.641Z,4.33
2019-01-10T13:32:46.040Z,3.30
2019-01-10T13:35:14.477Z,3.27
2019-01-10T13:37:42.876Z,3.47
2019-01-10T13:40:12.486Z,3.12
2019-01-10T13:42:41.239Z,2.90
2019-01-10T13:45:12.051Z,3.00
2019-01-10T13:47:40.472Z,3.50
2019-01-10T13:50:18.164Z,3.35
2019-01-10T13:52:46.497Z,3.17
2019-01-10T13:55:17.055Z,3.20
2019-01-10T13:57:45.489Z,3.27
2019-01-10T14:00:19.933Z,3.25
2019-01-10T14:02:48.408Z,3.90
2019-01-10T14:05:16.933Z,3.80
2019-01-10T14:07:45.354Z,4.17
2019-01-10T14:10:15.811Z,4.08
2019-01-10T14:12:44.283Z,3.47
2019-01-10T14:15:20.971Z,3.05
2019-01-10T14:17:49.332Z,3.50
2019-01-10T14:20:17.735Z,3.33
2019-01-10T14:22:46.187Z,3.53
2019-01-10T14:25:14.590Z,3.50
2019-01-10T14:27:43.301Z,3.30
2019-01-10T14:30:18.227Z,3.75
2019-01-10T14:32:46.629Z,3.57
2019-01-10T14:35:14.989Z,3.30
2019-01-10T14:37:43.385Z,3.40
2019-01-10T14:40:12.400Z,3.60
2019-01-10T14:42:40.731Z,3.60
2019-01-10T14:45:28.462Z,3.63
2019-01-10T14:48:01.826Z,3.40
2019-01-10T14:50:27.372Z,3.60
2019-01-10T14:52:55.799Z,4.30
2019-01-10T14:55:24.162Z,4.30
2019-01-10T14:57:52.576Z,3.70
2019-01-10T15:00:23.355Z,4.00
2019-01-10T15:02:51.836Z,3.77
2019-01-10T15:05:21.708Z,4.87
2019-01-10T15:07:50.303Z,3.93
2019-01-10T15:10:18.878Z,4.47
2019-01-10T15:12:48.088Z,5.28
2019-01-10T15:15:21.205Z,4.07
2019-01-10T15:17:49.583Z,4.60
2019-01-10T15:20:23.286Z,4.40
2019-01-10T15:22:51.727Z,3.93
2019-01-10T15:25:20.073Z,4.90
2019-01-10T15:27:48.422Z,4.67
2019-01-10T15:30:22.205Z,5.45
2019-01-10T15:32:50.621Z,4.80
2019-01-10T15:35:19.082Z,5.13
2019-01-10T15:37:47.536Z,5.83
2019-01-10T15:40:19.047Z,4.87
2019-01-10T15:42:47.519Z,5.10
2019-01-10T15:45:16.348Z,5.50
2019-01-10T15:47:44.708Z,4.87
2019-01-10T15:50:18.315Z,4.23
2019-01-10T15:52:46.837Z,4.53
2019-01-10T15:55:17.718Z,6.77
2019-01-10T15:57:46.195Z,6.90
2019-01-10T16:00:17.731Z,8.10
2019-01-10T16:02:46.177Z,6.67
2019-01-10T16:05:14.644Z,5.53
2019-01-10T16:07:43.100Z,4.77
2019-01-10T16:10:13.711Z,4.73
2019-01-10T16:12:42.097Z,4.90
2019-01-10T16:15:13.495Z,4.80
2019-01-10T16:17:41.875Z,4.40
2019-01-10T16:20:12.153Z,5.00
2019-01-10T16:22:40.516Z,4.10
2019-01-10T16:25:12.036Z,4.10
2019-01-10T16:27:40.409Z,4.73
2019-01-10T16:30:12.049Z,4.50
2019-01-10T16:32:40.429Z,4.50
2019-01-10T16:35:08.827Z,5.62
2019-01-10T16:37:37.309Z,5.13
2019-01-10T16:40:08.463Z,4.53
2019-01-10T16:42:37.654Z,5.05
2019-01-10T16:45:09.168Z,4.70
2019-01-10T16:47:37.502Z,4.87
2019-01-10T16:50:09.316Z,4.40
2019-01-10T16:52:37.692Z,5.10
2019-01-10T16:55:07.663Z,6.00
2019-01-10T16:57:35.999Z,4.13
2019-01-10T17:00:13.083Z,4.87
2019-01-10T17:02:41.459Z,5.03
2019-01-10T17:05:09.870Z,5.17
2019-01-10T17:07:38.196Z,5.17
2019-01-10T17:10:09.015Z,5.60
2019-01-10T17:12:37.351Z,5.80
2019-01-10T17:15:08.871Z,5.20
2019-01-10T17:17:37.816Z,4.63
2019-01-10T17:20:12.296Z,5.23
2019-01-10T17:22:40.705Z,9.80
2019-01-10T17:25:09.631Z,7.30
2019-01-10T17:27:37.976Z,11.50
2019-01-10T17:30:21.211Z,7.27
2019-01-10T17:32:49.535Z,6.53
2019-01-10T17:35:20.832Z,8.03
2019-01-10T17:38:08.523Z,5.97
2019-01-10T17:40:37.045Z,5.95
2019-01-10T17:43:06.244Z,6.33
2019-01-10T17:45:34.580Z,7.58
2019-01-10T17:48:22.311Z,6.20
2019-01-10T17:50:50.646Z,6.80
2019-01-10T17:53:19.027Z,5.37
2019-01-10T17:55:47.355Z,5.35
2019-01-10T17:58:15.704Z,5.63
2019-01-10T18:00:44.082Z,5.60
2019-01-10T18:03:12.479Z,6.80
2019-01-10T18:06:00.197Z,5.40
2019-01-10T18:08:28.610Z,6.67
2019-01-10T18:10:56.955Z,8.23
2019-01-10T18:13:25.287Z,6.80
2019-01-10T18:15:53.678Z,5.87
2019-01-10T18:18:22.044Z,6.27
2019-01-10T18:20:50.455Z,7.13
2019-01-10T18:23:18.908Z,5.10
2019-01-10T18:25:47.350Z,5.13
2019-01-10T18:28:15.687Z,7.10
2019-01-10T18:30:44.080Z,6.40
2019-01-10T18:33:12.546Z,5.67
2019-01-10T18:35:41.006Z,5.87
2019-01-10T18:38:09.339Z,7.10
2019-01-10T18:40:37.796Z,7.60
2019-01-10T18:43:06.228Z,7.47
2019-01-10T18:45:34.831Z,5.57
2019-01-10T18:48:03.343Z,5.80
2019-01-10T18:50:31.804Z,6.53
2019-01-10T18:53:00.128Z,6.25
2019-01-10T18:55:29.015Z,7.10
2019-01-10T18:57:57.586Z,8.10
2019-01-10T19:00:28.669Z,6.73
2019-01-10T19:02:57.543Z,7.20
2019-01-10T19:05:26.364Z,8.07
2019-01-10T19:07:54.791Z,8.60
2019-01-10T19:10:23.767Z,8.85
2019-01-10T19:12:52.669Z,9.10
2019-01-10T19:15:40.472Z,6.77
2019-01-10T19:18:28.208Z,5.93
2019-01-10T19:21:09.411Z,4.83
2019-01-10T19:23:37.799Z,5.03
2019-01-10T19:26:06.174Z,6.83
2019-01-10T19:28:34.511Z,5.60
2019-01-10T19:31:02.907Z,5.10
2019-01-10T19:33:31.245Z,5.23
2019-01-10T19:35:59.646Z,6.33
2019-01-10T19:38:28.049Z,7.50
2019-01-10T19:40:56.499Z,7.05
2019-01-10T19:43:24.907Z,8.58
2019-01-10T19:45:53.312Z,7.67
2019-01-10T19:48:21.670Z,8.80
2019-01-10T19:50:50.047Z,7.67
2019-01-10T19:53:18.419Z,6.78
2019-01-10T19:55:46.851Z,5.70
2019-01-10T19:58:15.200Z,7.80
2019-01-10T20:00:43.648Z,6.70
2019-01-10T20:03:12.057Z,9.13
2019-01-10T20:05:40.615Z,10.53
2019-01-10T20:08:08.970Z,11.60
2019-01-10T20:10:37.359Z,11.08
2019-01-10T20:13:06.322Z,11.40
2019-01-10T20:15:34.705Z,9.60
2019-01-10T20:18:03.113Z,10.33
2019-01-10T20:20:36.779Z,7.53
2019-01-10T20:23:06.930Z,8.20
2019-01-10T20:25:35.483Z,8.28
2019-01-10T20:28:04.684Z,7.80
2019-01-10T20:30:33.025Z,7.23
2019-01-10T20:33:01.404Z,6.80
2019-01-10T20:35:29.727Z,5.40
2019-01-10T20:37:58.103Z,6.58
2019-01-10T20:40:26.465Z,5.53
2019-01-10T20:42:55.193Z,5.43
2019-01-10T20:45:23.522Z,5.70
2019-01-10T20:47:51.862Z,5.30
2019-01-10T20:50:20.248Z,11.57
2019-01-10T20:52:48.644Z,5.10
2019-01-10T20:55:18.756Z,7.03
2019-01-10T20:57:47.221Z,5.80
2019-01-10T21:00:21.379Z,5.97
2019-01-10T21:02:50.263Z,6.30
2019-01-10T21:05:18.675Z,6.20
2019-01-10T21:07:48.717Z,7.87
2019-01-10T21:10:19.115Z,8.40
2019-01-10T21:12:48.237Z,6.27
2019-01-10T21:15:19.249Z,5.03
2019-01-10T21:17:49.222Z,5.20
2019-01-10T21:20:17.683Z,5.60
2019-01-10T21:22:46.245Z,5.30
2019-01-10T21:25:14.743Z,9.00
2019-01-10T21:27:43.137Z,9.25
2019-01-10T21:30:17.323Z,9.37
2019-01-10T21:32:47.340Z,8.03
2019-01-10T21:35:16.009Z,7.83
2019-01-10T21:37:44.449Z,6.25
2019-01-10T21:40:17.806Z,9.60
2019-01-10T21:42:46.363Z,7.80
2019-01-10T21:45:19.003Z,7.53
2019-01-10T21:47:47.499Z,7.37
2019-01-10T21:50:18.383Z,8.07
2019-01-10T21:52:46.803Z,7.87
2019-01-10T21:55:15.296Z,7.73
2019-01-10T21:57:43.785Z,8.20
2019-01-10T22:00:15.377Z,7.42
2019-01-10T22:02:43.735Z,7.20
2019-01-10T22:05:12.073Z,6.53
2019-01-10T22:07:40.431Z,7.20
2019-01-10T22:10:11.572Z,6.37
2019-01-10T22:12:39.970Z,6.30
2019-01-10T22:15:11.454Z,6.58
2019-01-10T22:17:39.822Z,7.00
2019-01-10T22:20:11.015Z,7.20
2019-01-10T22:22:39.383Z,7.40
2019-01-10T22:25:07.887Z,7.73
2019-01-10T22:27:36.309Z,6.83
2019-01-10T22:30:07.820Z,7.22
2019-01-10T22:32:36.190Z,6.07
2019-01-10T22:35:07.356Z,6.50
2019-01-10T22:37:35.712Z,6.57
2019-01-10T22:40:07.475Z,6.53
2019-01-10T22:42:35.818Z,6.70
2019-01-10T22:45:05.303Z,6.40
2019-01-10T22:47:33.656Z,6.30
2019-01-10T22:50:02.062Z,5.95
2019-01-10T22:52:30.491Z,6.70
2019-01-10T22:54:58.822Z,6.40
2019-01-10T22:57:27.146Z,6.73
2019-01-10T22:59:55.515Z,6.10
2019-01-10T23:02:24.007Z,6.80
2019-01-10T23:04:52.420Z,6.43
2019-01-10T23:07:20.848Z,6.20
2019-01-10T23:09:49.221Z,6.20
2019-01-10T23:12:17.629Z,6.13
2019-01-10T23:14:45.986Z,5.17
2019-01-10T23:17:14.391Z,5.33
2019-01-10T23:19:45.060Z,6.00
2019-01-10T23:22:14.335Z,5.90
2019-01-10T23:24:42.695Z,5.73
2019-01-10T23:27:11.029Z,5.97
2019-01-10T23:29:39.644Z,5.37
2019-01-10T23:32:09.016Z,4.70
2019-01-10T23:34:37.428Z,4.28
2019-01-10T23:37:05.871Z,4.07
2019-01-10T23:39:34.347Z,4.00
2019-01-10T23:42:02.684Z,4.60
2019-01-10T23:44:31.045Z,4.05
2019-01-10T23:46:59.376Z,4.27
2019-01-10T23:49:27.740Z,4.47
2019-01-10T23:51:56.073Z,4.27
2019-01-10T23:54:24.414Z,4.13
2019-01-10T23:56:52.771Z,4.72
2019-01-10T23:59:21.144Z,4.60
